createdAt,value
2018-07-20T00:01:29.368Z,7.77
2018-07-20T00:03:57.656Z,6.63
2018-07-20T00:06:25.779Z,8.20
2018-07-20T00:08:53.982Z,9.97
2018-07-20T00:11:22.202Z,7.20
2018-07-20T00:13:51.039Z,8.43
2018-07-20T00:16:19.297Z,9.20
2018-07-20T00:18:47.603Z,8.50
2018-07-20T00:21:15.847Z,7.70
2018-07-20T00:23:43.975Z,6.73
2018-07-20T00:26:12.257Z,6.97
2018-07-20T00:28:40.501Z,9.03
2018-07-20T00:31:08.725Z,6.63
2018-07-20T00:33:36.876Z,7.97
2018-07-20T00:36:05.049Z,8.23
2018-07-20T00:38:33.161Z,9.80
2018-07-20T00:41:01.372Z,7.67
2018-07-20T00:43:29.557Z,8.43
2018-07-20T00:45:57.651Z,7.27
2018-07-20T00:48:25.749Z,7.40
2018-07-20T00:50:53.929Z,7.90
2018-07-20T00:53:22.119Z,8.33
2018-07-20T00:55:50.331Z,7.23
2018-07-20T00:58:18.544Z,6.73
2018-07-20T01:00:46.818Z,7.30
2018-07-20T01:03:14.994Z,8.63
2018-07-20T01:05:43.210Z,8.97
2018-07-20T01:08:11.456Z,7.90
2018-07-20T01:10:39.714Z,7.37
2018-07-20T01:13:07.968Z,8.77
2018-07-20T01:15:36.818Z,7.70
2018-07-20T01:18:05.174Z,8.20
2018-07-20T01:20:33.296Z,8.50
2018-07-20T01:23:01.541Z,9.97
2018-07-20T01:25:29.739Z,11.67
2018-07-20T01:27:58.209Z,10.37
2018-07-20T01:30:26.333Z,8.40
2018-07-20T01:32:54.513Z,9.00
2018-07-20T01:35:22.791Z,8.37
2018-07-20T01:37:51.004Z,7.73
2018-07-20T01:40:19.266Z,8.97
2018-07-20T01:42:47.442Z,8.13
2018-07-20T01:45:15.576Z,8.57
2018-07-20T01:47:44.261Z,8.17
2018-07-20T01:50:12.606Z,7.90
2018-07-20T01:52:41.188Z,7.03
2018-07-20T01:55:09.414Z,9.10
2018-07-20T01:57:37.552Z,8.90
2018-07-20T02:00:05.687Z,8.20
2018-07-20T02:02:33.902Z,8.17
2018-07-20T02:05:02.159Z,9.50
2018-07-20T02:07:30.344Z,10.30
2018-07-20T02:09:59.218Z,8.23
2018-07-20T02:12:27.419Z,9.83
2018-07-20T02:14:55.634Z,8.57
2018-07-20T02:17:23.830Z,8.73
2018-07-20T02:19:52.088Z,9.23
2018-07-20T02:22:20.279Z,9.33
2018-07-20T02:24:48.603Z,9.27
2018-07-20T02:27:16.932Z,9.97
2018-07-20T02:29:45.123Z,9.07
2018-07-20T02:32:13.389Z,9.13
2018-07-20T02:34:41.579Z,8.70
2018-07-20T02:37:09.801Z,9.27
2018-07-20T02:39:37.989Z,8.90
2018-07-20T02:42:06.195Z,8.13
2018-07-20T02:44:35.023Z,8.83
2018-07-20T02:47:03.561Z,9.40
2018-07-20T02:49:32.031Z,10.70
2018-07-20T02:52:00.281Z,13.23
2018-07-20T02:54:28.608Z,10.57
2018-07-20T02:56:56.815Z,12.33
2018-07-20T02:59:25.088Z,9.40
2018-07-20T03:01:53.280Z,10.20
2018-07-20T03:04:21.580Z,10.83
2018-07-20T03:06:49.794Z,10.30
2018-07-20T03:09:18.051Z,9.97
2018-07-20T03:11:46.473Z,9.73
2018-07-20T03:14:14.867Z,13.13
2018-07-20T03:16:43.027Z,9.63
2018-07-20T03:19:11.093Z,9.37
2018-07-20T03:21:39.277Z,9.83
2018-07-20T03:24:07.502Z,8.63
2018-07-20T03:26:35.574Z,12.10
2018-07-20T03:29:03.663Z,10.20
2018-07-20T03:31:31.890Z,12.37
2018-07-20T03:34:00.104Z,11.50
2018-07-20T03:36:28.272Z,9.40
2018-07-20T03:38:56.548Z,10.37
2018-07-20T03:41:24.861Z,10.20
2018-07-20T03:43:53.074Z,9.87
2018-07-20T03:46:21.228Z,9.87
2018-07-20T03:48:49.560Z,8.83
2018-07-20T03:51:17.688Z,11.40
2018-07-20T03:53:46.032Z,10.83
2018-07-20T03:56:14.203Z,14.60
2018-07-20T03:58:42.394Z,15.27
2018-07-20T04:01:10.475Z,12.93
2018-07-20T04:03:38.574Z,14.40
2018-07-20T04:06:06.812Z,10.13
2018-07-20T04:08:34.957Z,12.07
2018-07-20T04:11:03.216Z,11.07
2018-07-20T04:13:31.513Z,10.67
2018-07-20T04:15:59.685Z,10.20
2018-07-20T04:18:27.862Z,12.50
2018-07-20T04:20:55.899Z,11.43
2018-07-20T04:23:24.976Z,15.03
2018-07-20T04:25:53.163Z,13.07
2018-07-20T04:28:21.964Z,12.57
2018-07-20T04:30:50.100Z,11.07
2018-07-20T04:33:18.478Z,13.00
2018-07-20T04:35:46.683Z,12.63
2018-07-20T04:38:14.907Z,11.83
2018-07-20T04:40:43.151Z,13.93
2018-07-20T04:43:11.441Z,14.70
2018-07-20T04:45:39.690Z,10.93
2018-07-20T04:48:07.902Z,11.33
2018-07-20T04:50:36.267Z,10.00
2018-07-20T04:53:04.489Z,13.33
2018-07-20T04:55:32.636Z,13.00
2018-07-20T04:58:00.661Z,12.50
2018-07-20T05:00:29.031Z,12.03
2018-07-20T05:02:57.349Z,10.20
2018-07-20T05:05:25.605Z,12.63
2018-07-20T05:07:53.736Z,10.83
2018-07-20T05:10:21.975Z,13.30
2018-07-20T05:12:50.092Z,12.37
2018-07-20T05:15:18.254Z,9.83
2018-07-20T05:17:46.422Z,10.20
2018-07-20T05:20:14.708Z,9.50
2018-07-20T05:22:42.884Z,10.10
2018-07-20T05:25:11.118Z,10.97
2018-07-20T05:27:39.734Z,10.40
2018-07-20T05:30:08.846Z,12.87
2018-07-20T05:32:37.412Z,12.23
2018-07-20T05:35:05.576Z,9.73
2018-07-20T05:37:33.782Z,7.57
2018-07-20T05:40:01.996Z,11.33
2018-07-20T05:42:30.250Z,8.13
2018-07-20T05:44:58.518Z,7.97
2018-07-20T05:47:26.796Z,7.43
2018-07-20T05:49:54.960Z,8.90
2018-07-20T05:52:23.222Z,9.70
2018-07-20T05:54:51.476Z,10.37
2018-07-20T05:57:19.802Z,9.97
2018-07-20T05:59:48.015Z,9.37
2018-07-20T06:02:16.649Z,9.37
2018-07-20T06:04:45.137Z,7.10
2018-07-20T06:07:13.385Z,7.60
2018-07-20T06:09:41.464Z,7.33
2018-07-20T06:12:09.574Z,7.20
2018-07-20T06:14:37.895Z,6.87
2018-07-20T06:17:06.168Z,6.10
2018-07-20T06:19:38.023Z,5.43
2018-07-20T06:22:06.484Z,7.10
2018-07-20T06:24:34.779Z,5.63
2018-07-20T06:27:02.953Z,6.60
2018-07-20T06:29:31.387Z,5.33
2018-07-20T06:31:59.537Z,5.67
2018-07-20T06:34:27.727Z,4.87
2018-07-20T06:36:56.001Z,5.35
2018-07-20T06:39:24.293Z,5.58
2018-07-20T06:41:52.494Z,5.55
2018-07-20T06:44:20.801Z,4.87
2018-07-20T06:46:49.103Z,4.80
2018-07-20T06:49:17.297Z,5.00
2018-07-20T06:51:45.544Z,4.05
2018-07-20T06:54:14.719Z,4.28
2018-07-20T06:56:43.610Z,5.00
2018-07-20T06:59:11.732Z,4.35
2018-07-20T07:01:39.894Z,4.90
2018-07-20T07:04:07.991Z,5.30
2018-07-20T07:06:36.363Z,4.00
2018-07-20T07:09:07.691Z,4.37
2018-07-20T07:11:35.951Z,4.12
2018-07-20T07:14:04.066Z,4.67
2018-07-20T07:16:32.336Z,4.78
2018-07-20T07:19:01.161Z,3.67
2018-07-20T07:21:30.053Z,4.12
2018-07-20T07:23:58.224Z,3.33
2018-07-20T07:26:26.536Z,4.28
2018-07-20T07:28:54.605Z,3.50
2018-07-20T07:31:22.688Z,4.10
2018-07-20T07:33:50.896Z,3.70
2018-07-20T07:36:19.138Z,3.30
2018-07-20T07:38:47.416Z,3.50
2018-07-20T07:41:15.676Z,3.52
2018-07-20T07:43:43.868Z,3.15
2018-07-20T07:46:11.976Z,2.90
2018-07-20T07:48:40.261Z,3.42
2018-07-20T07:51:08.468Z,3.10
2018-07-20T07:53:36.774Z,2.85
2018-07-20T07:56:05.021Z,2.83
2018-07-20T07:58:33.163Z,3.08
2018-07-20T08:01:01.389Z,2.85
2018-07-20T08:03:29.637Z,2.80
2018-07-20T08:05:57.827Z,2.70
2018-07-20T08:08:26.148Z,2.98
2018-07-20T08:10:54.349Z,3.40
2018-07-20T08:13:22.859Z,2.75
2018-07-20T08:15:51.042Z,3.10
2018-07-20T08:18:19.247Z,2.83
2018-07-20T08:20:47.451Z,2.60
2018-07-20T08:23:15.699Z,2.50
2018-07-20T08:25:43.893Z,3.40
2018-07-20T08:28:12.471Z,2.60
2018-07-20T08:30:40.734Z,2.60
2018-07-20T08:33:09.023Z,2.30
2018-07-20T08:35:37.261Z,2.77
2018-07-20T08:38:05.479Z,2.52
2018-07-20T08:40:33.823Z,2.83
2018-07-20T08:43:01.993Z,2.47
2018-07-20T08:45:30.219Z,2.12
2018-07-20T08:47:58.519Z,1.92
2018-07-20T08:50:26.737Z,2.62
2018-07-20T08:52:54.964Z,2.47
2018-07-20T08:55:23.388Z,2.45
2018-07-20T08:57:51.512Z,2.25
2018-07-20T09:00:19.766Z,2.60
2018-07-20T09:02:47.880Z,2.72
2018-07-20T09:05:15.934Z,2.35
2018-07-20T09:07:44.472Z,2.58
2018-07-20T09:10:12.626Z,2.30
2018-07-20T09:12:40.733Z,2.40
2018-07-20T09:15:08.937Z,2.40
2018-07-20T09:17:37.068Z,2.80
2018-07-20T09:20:06.322Z,2.50
2018-07-20T09:22:34.425Z,2.40
2018-07-20T09:25:02.630Z,2.47
2018-07-20T09:27:30.864Z,2.50
2018-07-20T09:29:59.056Z,2.80
2018-07-20T09:32:27.297Z,2.50
2018-07-20T09:34:55.566Z,2.60
2018-07-20T09:37:23.827Z,2.35
2018-07-20T09:39:52.115Z,2.40
2018-07-20T09:42:20.348Z,2.45
2018-07-20T09:44:48.541Z,2.77
2018-07-20T09:47:16.775Z,2.72
2018-07-20T09:49:45.791Z,2.52
2018-07-20T09:52:14.070Z,2.77
2018-07-20T09:54:42.199Z,2.85
2018-07-20T09:57:10.361Z,2.50
2018-07-20T09:59:39.174Z,2.50
2018-07-20T10:02:07.254Z,2.52
2018-07-20T10:04:35.411Z,2.40
2018-07-20T10:07:03.741Z,3.40
2018-07-20T10:09:31.945Z,2.95
2018-07-20T10:12:00.361Z,3.55
2018-07-20T10:14:28.519Z,2.80
2018-07-20T10:16:56.687Z,3.37
2018-07-20T10:19:24.976Z,5.90
2018-07-20T10:21:53.272Z,3.30
2018-07-20T10:24:21.483Z,3.60
2018-07-20T10:26:50.347Z,3.00
2018-07-20T10:29:18.763Z,3.87
2018-07-20T10:31:46.990Z,3.62
2018-07-20T10:34:15.129Z,3.30
2018-07-20T10:39:43.333Z,3.20
2018-07-20T10:42:11.535Z,2.80
2018-07-20T10:44:40.136Z,3.05
2018-07-20T10:47:08.342Z,2.60
2018-07-20T10:49:36.549Z,3.40
2018-07-20T10:52:04.787Z,2.50
2018-07-20T10:54:32.979Z,2.90
2018-07-20T10:57:01.270Z,2.55
2018-07-20T10:59:29.555Z,2.58
2018-07-20T11:01:57.785Z,2.60
2018-07-20T11:04:25.943Z,2.60
2018-07-20T11:06:54.119Z,2.65
2018-07-20T11:09:22.208Z,2.60
2018-07-20T11:11:50.376Z,2.60
2018-07-20T11:14:18.944Z,3.10
2018-07-20T11:16:47.131Z,3.40
2018-07-20T11:19:15.357Z,2.70
2018-07-20T11:21:43.644Z,2.55
2018-07-20T11:24:12.846Z,2.70
2018-07-20T11:26:41.243Z,2.90
2018-07-20T11:29:10.642Z,2.40
2018-07-20T11:31:38.816Z,3.10
2018-07-20T11:34:06.960Z,3.00
2018-07-20T11:36:35.198Z,2.95
2018-07-20T11:39:05.420Z,2.87
2018-07-20T11:41:33.588Z,2.90
2018-07-20T11:44:01.858Z,2.98
2018-07-20T11:46:29.950Z,3.65
2018-07-20T11:48:58.862Z,3.10
2018-07-20T11:51:27.779Z,3.70
2018-07-20T11:53:56.019Z,3.40
2018-07-20T11:56:25.169Z,3.20
2018-07-20T11:58:53.357Z,3.27
2018-07-20T12:01:21.489Z,2.95
2018-07-20T12:03:50.156Z,3.22
2018-07-20T12:06:18.358Z,3.30
2018-07-20T12:08:51.110Z,3.30
2018-07-20T12:11:19.328Z,3.20
2018-07-20T12:13:47.573Z,3.55
2018-07-20T12:16:15.754Z,3.60
2018-07-20T12:18:44.593Z,3.30
2018-07-20T12:21:12.689Z,3.83
2018-07-20T12:23:40.886Z,3.90
2018-07-20T12:26:09.058Z,2.98
2018-07-20T12:28:37.967Z,2.83
2018-07-20T12:31:06.256Z,3.27
2018-07-20T12:33:34.495Z,3.42
2018-07-20T12:36:02.735Z,3.12
2018-07-20T12:38:30.921Z,3.70
2018-07-20T12:40:58.927Z,3.50
2018-07-20T12:43:27.045Z,3.67
2018-07-20T12:45:55.379Z,4.75
2018-07-20T12:48:23.483Z,4.47
2018-07-20T12:50:51.723Z,5.10
2018-07-20T12:53:19.903Z,3.80
2018-07-20T12:55:48.138Z,4.17
2018-07-20T12:58:16.364Z,4.30
2018-07-20T13:00:45.352Z,4.40
2018-07-20T13:03:13.536Z,4.10
2018-07-20T13:05:41.726Z,3.95
2018-07-20T13:08:11.044Z,4.65
2018-07-20T13:10:39.188Z,4.40
2018-07-20T13:13:07.437Z,4.03
2018-07-20T13:15:35.714Z,3.90
2018-07-20T13:18:04.065Z,3.77
2018-07-20T13:20:33.354Z,3.98
2018-07-20T13:23:01.768Z,3.60
2018-07-20T13:25:29.962Z,3.95
2018-07-20T13:27:58.288Z,3.30
2018-07-20T13:30:26.568Z,3.60
2018-07-20T13:32:54.996Z,3.80
2018-07-20T13:35:23.240Z,3.65
2018-07-20T13:37:51.352Z,3.60
2018-07-20T13:40:19.545Z,3.90
2018-07-20T13:42:47.754Z,3.90
2018-07-20T13:45:15.958Z,4.30
2018-07-20T13:47:44.130Z,4.10
2018-07-20T13:50:12.251Z,4.30
2018-07-20T13:52:40.448Z,4.08
2018-07-20T13:55:08.597Z,4.28
2018-07-20T13:57:36.815Z,4.83
2018-07-20T14:00:07.567Z,4.92
2018-07-20T14:02:35.976Z,4.00
2018-07-20T14:05:04.393Z,4.47
2018-07-20T14:07:32.574Z,4.42
2018-07-20T14:10:00.844Z,5.62
2018-07-20T14:12:29.050Z,5.65
2018-07-20T14:14:57.304Z,5.25
2018-07-20T14:17:25.612Z,4.58
2018-07-20T14:19:53.805Z,5.35
2018-07-20T14:22:22.048Z,5.75
2018-07-20T14:24:51.703Z,4.62
2018-07-20T14:27:19.889Z,5.72
2018-07-20T14:29:48.111Z,5.87
2018-07-20T14:32:16.389Z,5.03
2018-07-20T14:34:44.639Z,5.37
2018-07-20T14:37:12.881Z,4.60
2018-07-20T14:39:41.113Z,4.70
2018-07-20T14:42:09.218Z,5.03
2018-07-20T14:44:37.542Z,5.90
2018-07-20T14:47:06.233Z,5.65
2018-07-20T14:49:34.350Z,4.80
2018-07-20T14:52:02.563Z,5.03
2018-07-20T14:54:31.544Z,6.17
2018-07-20T14:56:59.728Z,5.23
2018-07-20T14:59:28.454Z,5.90
2018-07-20T15:01:56.652Z,5.33
2018-07-20T15:04:24.862Z,6.27
2018-07-20T15:06:53.685Z,6.40
2018-07-20T15:09:21.828Z,5.45
2018-07-20T15:11:50.582Z,6.67
2018-07-20T15:14:18.741Z,6.27
2018-07-20T15:16:46.911Z,5.80
2018-07-20T15:19:15.096Z,5.73
2018-07-20T15:21:43.338Z,6.40
2018-07-20T15:24:12.050Z,5.10
2018-07-20T15:26:40.926Z,5.67
2018-07-20T15:29:09.101Z,5.40
2018-07-20T15:31:37.117Z,5.40
2018-07-20T15:34:05.542Z,5.70
2018-07-20T15:36:33.641Z,6.30
2018-07-20T15:39:01.870Z,5.50
2018-07-20T15:41:31.021Z,6.40
2018-07-20T15:43:59.261Z,6.07
2018-07-20T15:46:27.535Z,5.93
2018-07-20T15:48:55.705Z,5.77
2018-07-20T15:51:31.579Z,6.70
2018-07-20T15:53:52.326Z,5.30
2018-07-20T15:56:21.116Z,5.13
2018-07-20T15:58:49.232Z,5.30
2018-07-20T16:01:17.453Z,5.80
2018-07-20T16:03:45.718Z,5.90
2018-07-20T16:06:14.036Z,5.50
2018-07-20T16:08:42.306Z,5.90
2018-07-20T16:11:10.480Z,4.83
2018-07-20T16:13:38.627Z,6.00
2018-07-20T16:16:06.829Z,5.33
2018-07-20T16:18:35.044Z,5.37
2018-07-20T16:21:03.141Z,5.10
2018-07-20T16:23:31.381Z,4.40
2018-07-20T16:26:00.702Z,6.07
2018-07-20T16:28:28.757Z,6.10
2018-07-20T16:30:56.920Z,6.07
2018-07-20T16:33:25.089Z,5.60
2018-07-20T16:35:53.397Z,4.90
2018-07-20T16:38:21.633Z,6.50
2018-07-20T16:40:49.855Z,6.60
2018-07-20T16:43:18.063Z,5.63
2018-07-20T16:45:46.212Z,5.70
2018-07-20T16:48:14.371Z,6.80
2018-07-20T16:50:42.422Z,5.17
2018-07-20T16:53:10.522Z,6.00
2018-07-20T16:55:38.761Z,5.70
2018-07-20T16:58:06.986Z,5.90
2018-07-20T17:00:35.202Z,5.87
2018-07-20T17:03:03.371Z,5.70
2018-07-20T17:05:31.526Z,5.90
2018-07-20T17:07:59.602Z,6.07
2018-07-20T17:10:27.992Z,5.43
2018-07-20T17:12:56.137Z,5.30
2018-07-20T17:15:24.384Z,6.60
2018-07-20T17:17:53.735Z,5.73
2018-07-20T17:20:22.818Z,6.20
2018-07-20T17:22:51.041Z,6.17
2018-07-20T17:25:19.216Z,6.77
2018-07-20T17:27:47.471Z,5.30
2018-07-20T17:30:15.633Z,5.43
2018-07-20T17:32:43.935Z,5.90
2018-07-20T17:35:12.133Z,6.43
2018-07-20T17:37:40.441Z,5.70
2018-07-20T17:40:08.853Z,6.13
2018-07-20T17:42:37.009Z,5.67
2018-07-20T17:45:05.287Z,6.50
2018-07-20T17:47:33.460Z,6.60
2018-07-20T17:50:01.628Z,6.00
2018-07-20T17:52:29.771Z,6.27
2018-07-20T17:54:57.891Z,6.30
2018-07-20T17:57:26.203Z,6.90
2018-07-20T17:59:54.503Z,6.73
2018-07-20T18:02:22.597Z,6.73
2018-07-20T18:04:50.945Z,7.13
2018-07-20T18:07:19.895Z,6.47
2018-07-20T18:09:48.096Z,6.97
2018-07-20T18:12:17.049Z,6.50
2018-07-20T18:14:45.190Z,6.37
2018-07-20T18:17:13.427Z,5.90
2018-07-20T18:19:41.611Z,6.70
2018-07-20T18:22:09.851Z,6.70
2018-07-20T18:24:38.108Z,6.87
2018-07-20T18:27:06.453Z,6.73
2018-07-20T18:29:34.709Z,6.67
2018-07-20T18:32:02.910Z,6.13
2018-07-20T18:34:31.337Z,6.07
2018-07-20T18:36:59.477Z,6.40
2018-07-20T18:39:27.525Z,6.50
2018-07-20T18:41:55.717Z,6.17
2018-07-20T18:44:23.899Z,7.10
2018-07-20T18:46:52.255Z,7.87
2018-07-20T18:49:20.449Z,6.10
2018-07-20T18:51:48.640Z,7.67
2018-07-20T18:54:16.641Z,6.77
2018-07-20T18:56:45.218Z,7.83
2018-07-20T18:59:13.453Z,7.37
2018-07-20T19:01:41.656Z,7.10
2018-07-20T19:04:09.870Z,8.60
2018-07-20T19:06:38.081Z,7.73
2018-07-20T19:09:08.398Z,7.87
2018-07-20T19:11:37.003Z,7.10
2018-07-20T19:14:05.436Z,7.83
2018-07-20T19:16:33.714Z,7.77
2018-07-20T19:19:02.108Z,7.10
2018-07-20T19:21:30.342Z,7.77
2018-07-20T19:23:58.478Z,6.90
2018-07-20T19:26:26.680Z,8.63
2018-07-20T19:28:54.904Z,7.70
2018-07-20T19:31:23.648Z,8.47
2018-07-20T19:33:51.878Z,7.00
2018-07-20T19:36:20.063Z,8.03
2018-07-20T19:38:48.308Z,7.60
2018-07-20T19:41:16.593Z,7.67
2018-07-20T19:43:44.754Z,8.17
2018-07-20T19:46:13.000Z,8.67
2018-07-20T19:48:41.242Z,7.10
2018-07-20T19:51:09.518Z,7.37
2018-07-20T19:53:37.702Z,7.90
2018-07-20T19:56:06.513Z,7.40
2018-07-20T19:58:34.725Z,7.90
2018-07-20T20:01:03.034Z,7.63
2018-07-20T20:03:31.240Z,7.73
2018-07-20T20:05:59.472Z,7.93
2018-07-20T20:08:27.813Z,7.67
2018-07-20T20:10:56.050Z,6.90
2018-07-20T20:13:24.304Z,7.17
2018-07-20T20:15:52.516Z,8.40
2018-07-20T20:18:20.774Z,8.60
2018-07-20T20:20:49.049Z,8.50
2018-07-20T20:23:17.109Z,6.90
2018-07-20T20:25:45.449Z,7.43
2018-07-20T20:28:13.651Z,7.93
2018-07-20T20:30:41.717Z,8.10
2018-07-20T20:33:10.980Z,10.27
2018-07-20T20:35:39.391Z,8.97
2018-07-20T20:38:08.500Z,8.90
2018-07-20T20:40:36.796Z,10.37
2018-07-20T20:43:05.062Z,7.97
2018-07-20T20:45:34.062Z,8.70
2018-07-20T20:48:02.425Z,7.23
2018-07-20T20:50:30.604Z,7.23
2018-07-20T20:52:58.980Z,8.40
2018-07-20T20:55:27.372Z,8.83
2018-07-20T20:57:55.530Z,8.47
2018-07-20T21:00:23.708Z,8.50
2018-07-20T21:02:51.844Z,8.50
2018-07-20T21:05:20.028Z,8.23
2018-07-20T21:07:48.202Z,9.60
2018-07-20T21:10:16.412Z,9.10
2018-07-20T21:12:45.521Z,8.93
2018-07-20T21:15:13.717Z,10.63
2018-07-20T21:17:41.862Z,8.33
2018-07-20T21:20:10.238Z,10.17
2018-07-20T21:22:38.422Z,10.00
2018-07-20T21:25:07.064Z,8.30
2018-07-20T21:27:35.544Z,10.70
2018-07-20T21:30:04.072Z,9.93
2018-07-20T21:32:32.170Z,10.33
2018-07-20T21:35:00.356Z,8.70
2018-07-20T21:37:29.310Z,9.23
2018-07-20T21:39:57.428Z,10.33
2018-07-20T21:42:26.620Z,8.37
2018-07-20T21:44:54.764Z,10.50
2018-07-20T21:47:22.925Z,8.90
2018-07-20T21:49:51.789Z,10.97
2018-07-20T21:52:20.009Z,9.40
2018-07-20T21:54:48.121Z,8.03
2018-07-20T21:57:17.249Z,9.03
2018-07-20T21:59:45.412Z,10.30
2018-07-20T22:02:13.669Z,10.40
2018-07-20T22:04:41.855Z,9.47
2018-07-20T22:07:10.009Z,9.07
2018-07-20T22:09:38.152Z,8.77
2018-07-20T22:12:06.344Z,9.33
2018-07-20T22:14:34.573Z,9.50
2018-07-20T22:17:02.809Z,9.67
2018-07-20T22:19:31.007Z,10.23
2018-07-20T22:21:59.131Z,10.03
2018-07-20T22:24:27.293Z,8.73
2018-07-20T22:26:55.525Z,9.37
2018-07-20T22:29:23.773Z,8.37
2018-07-20T22:31:51.797Z,8.73
2018-07-20T22:34:20.041Z,9.90
2018-07-20T22:36:48.876Z,8.47
2018-07-20T22:39:17.042Z,8.00
2018-07-20T22:41:45.208Z,9.87
2018-07-20T22:44:13.352Z,9.27
2018-07-20T22:46:41.447Z,8.50
2018-07-20T22:49:09.903Z,8.83
2018-07-20T22:51:38.044Z,7.03
2018-07-20T22:54:06.959Z,8.17
2018-07-20T22:56:35.747Z,8.77
2018-07-20T22:59:04.141Z,9.00
2018-07-20T23:01:32.278Z,8.93
2018-07-20T23:04:00.532Z,8.63
2018-07-20T23:06:28.724Z,10.67
2018-07-20T23:08:57.024Z,9.17
2018-07-20T23:11:25.188Z,7.80
2018-07-20T23:13:54.039Z,7.90
2018-07-20T23:16:22.294Z,8.30
2018-07-20T23:18:50.371Z,8.43
2018-07-20T23:21:18.548Z,7.80
2018-07-20T23:23:47.776Z,8.40
2018-07-20T23:26:15.934Z,7.47
2018-07-20T23:28:44.530Z,7.30
2018-07-20T23:31:12.634Z,9.20
2018-07-20T23:33:40.787Z,8.70
2018-07-20T23:36:09.804Z,8.80
2018-07-20T23:38:38.432Z,8.13
2018-07-20T23:41:06.987Z,8.33
2018-07-20T23:43:35.110Z,8.57
2018-07-20T23:46:03.358Z,9.90
2018-07-20T23:48:31.600Z,9.30
2018-07-20T23:50:59.606Z,8.40
2018-07-20T23:53:27.758Z,8.47
2018-07-20T23:55:55.916Z,8.37
2018-07-20T23:58:23.996Z,8.37
